Time;durP1;ratioP1;P1;durP2;ratioP2;P2;SDS_P1;SDS_P2;PMS_P1;PMS_P2;Temp;Humidity;BMP_temperature;BMP_pressure;BME280_temperature;BME280_humidity;BME280_pressure;Samples;Min_cycle;Max_cycle;Signal;HPM_P1;HPM_P2
2021/06/02 00:02:09;;;;;;;9.77;9.07;;;15.50;99.90;;;;;;5072448;28;20175;-65
2021/06/02 00:04:42;;;;;;;9.60;8.80;;;15.50;99.90;;;;;;5092058;28;20174;-65
2021/06/02 00:07:09;;;;;;;10.07;9.37;;;15.50;99.90;;;;;;5091609;28;20603;-65
2021/06/02 00:09:36;;;;;;;10.87;9.87;;;15.20;99.90;;;;;;5072117;28;20644;-65
2021/06/02 00:12:10;;;;;;;10.60;9.60;;;15.00;99.90;;;;;;5071502;28;20162;-65
2021/06/02 00:14:37;;;;;;;9.80;9.10;;;15.00;99.90;;;;;;5092004;28;20180;-65
2021/06/02 00:17:03;;;;;;;9.87;9.17;;;15.00;99.90;;;;;;5091688;28;20198;-65
2021/06/02 00:19:28;;;;;;;9.53;8.83;;;15.00;99.90;;;;;;5072774;28;20185;-65
2021/06/02 00:21:56;;;;;;;9.87;9.03;;;14.90;99.90;;;;;;5071228;28;20304;-65
2021/06/02 00:24:22;;;;;;;9.90;9.20;;;14.80;99.90;;;;;;5088659;28;20177;-65
2021/06/02 00:26:51;;;;;;;9.37;8.67;;;14.70;99.90;;;;;;5091450;28;20220;-65
2021/06/02 00:29:17;;;;;;;12.10;11.10;;;14.60;99.90;;;;;;5075401;28;20178;-65
2021/06/02 00:31:46;;;;;;;11.43;10.40;;;14.60;99.90;;;;;;5071357;28;20162;-65
2021/06/02 00:34:12;;;;;;;10.77;9.80;;;14.60;99.90;;;;;;5086043;28;20173;-65
2021/06/02 00:36:43;;;;;;;9.33;8.53;;;14.60;99.90;;;;;;5091744;28;20193;-65
2021/06/02 00:39:09;;;;;;;10.70;10.00;;;14.60;99.90;;;;;;5077479;28;20651;-65
2021/06/02 00:41:37;;;;;;;9.87;9.07;;;14.50;99.90;;;;;;5071236;28;20170;-65
2021/06/02 00:44:07;;;;;;;11.00;10.00;;;14.50;99.90;;;;;;5089499;28;20255;-65
2021/06/02 00:46:36;;;;;;;11.07;10.10;;;14.60;99.90;;;;;;5098260;28;20201;-65
2021/06/02 00:49:03;;;;;;;10.87;9.97;;;14.60;99.90;;;;;;5086017;28;20185;-65
2021/06/02 00:51:29;;;;;;;10.80;10.10;;;14.60;99.90;;;;;;5078045;28;20514;-65
2021/06/02 00:53:55;;;;;;;10.40;9.60;;;14.70;99.90;;;;;;5087824;28;20219;-65
2021/06/02 00:56:41;;;;;;;10.60;9.80;;;14.70;99.90;;;;;;5098158;28;20189;-65
2021/06/02 00:59:09;;;;;;;10.50;9.60;;;14.60;99.90;;;;;;5086486;28;20181;-65
2021/06/02 01:01:35;;;;;;;10.10;9.40;;;14.40;99.90;;;;;;5077649;28;20173;-66
2021/06/02 01:04:03;;;;;;;10.27;9.47;;;14.30;99.90;;;;;;5087741;28;20227;-65
2021/06/02 01:06:33;;;;;;;11.00;10.10;;;14.30;99.90;;;;;;5098092;28;20197;-65
2021/06/02 01:09:01;;;;;;;10.10;9.30;;;14.20;99.90;;;;;;5088923;28;20173;-66
2021/06/02 01:11:28;;;;;;;10.10;9.30;;;14.10;99.90;;;;;;5077450;28;20170;-65
2021/06/02 01:13:58;;;;;;;10.20;9.40;;;14.10;99.90;;;;;;5085328;28;20177;-65
2021/06/02 01:16:32;;;;;;;10.03;9.23;;;14.10;99.90;;;;;;5098274;28;20730;-65
2021/06/02 01:18:58;;;;;;;11.30;9.47;;;14.20;99.90;;;;;;5089995;28;20182;-65
2021/06/02 01:21:28;;;;;;;9.73;8.80;;;14.10;99.90;;;;;;5077357;28;20180;-65
2021/06/02 01:23:59;;;;;;;10.30;9.30;;;14.00;99.90;;;;;;5084192;28;20213;-65
2021/06/02 01:26:27;;;;;;;10.27;9.53;;;13.90;99.90;;;;;;5097816;28;20327;-65
2021/06/02 01:28:53;;;;;;;10.37;9.40;;;13.80;99.90;;;;;;5091736;28;20166;-66
2021/06/02 01:31:47;;;;;;;11.30;10.30;;;13.70;99.90;;;;;;5077237;28;20265;-65
2021/06/02 01:34:43;;;;;;;11.17;10.13;;;13.90;99.90;;;;;;5085625;28;20246;-66
2021/06/02 01:37:15;;;;;;;10.67;9.87;;;13.90;99.90;;;;;;5095910;28;20197;-65
2021/06/02 01:39:59;;;;;;;10.60;9.70;;;13.90;99.90;;;;;;5086248;28;20700;-65
2021/06/02 01:42:36;;;;;;;12.13;11.23;;;13.80;99.90;;;;;;5077769;28;20177;-65
2021/06/02 01:45:43;;;;;;;13.90;9.87;;;13.80;99.90;;;;;;5091100;28;20550;-65
2021/06/02 01:48:26;;;;;;;9.97;9.27;;;13.60;99.90;;;;;;5080822;28;20217;-65
2021/06/02 01:51:29;;;;;;;9.83;9.13;;;13.40;99.90;;;;;;5079845;28;20174;-65
2021/06/02 01:54:31;;;;;;;11.43;10.43;;;13.30;99.90;;;;;;5096682;28;20218;-65
2021/06/02 01:57:12;;;;;;;12.07;11.17;;;13.20;99.90;;;;;;5082878;28;20257;-65
2021/06/02 02:00:08;;;;;;;11.33;10.33;;;13.10;99.90;;;;;;5074414;28;20170;-65
2021/06/02 02:02:36;;;;;;;10.87;10.07;;;13.10;99.90;;;;;;5089993;28;20256;-64
2021/06/02 02:05:10;;;;;;;10.67;9.97;;;13.20;99.90;;;;;;5094346;28;20185;-65
2021/06/02 02:08:13;;;;;;;11.47;10.53;;;13.20;99.90;;;;;;5079313;28;20263;-65
2021/06/02 02:10:52;;;;;;;11.87;10.67;;;13.20;99.90;;;;;;5073737;28;20219;-65
2021/06/02 02:13:27;;;;;;;12.60;11.50;;;13.10;99.90;;;;;;5053846;28;20177;-65
2021/06/02 02:16:04;;;;;;;12.23;11.13;;;13.10;99.90;;;;;;5054371;28;20188;-65
2021/06/02 02:18:51;;;;;;;12.30;11.33;;;13.00;99.90;;;;;;5094122;28;20236;-65
2021/06/02 02:21:33;;;;;;;13.07;11.87;;;13.00;99.90;;;;;;5090412;28;20181;-64
2021/06/02 02:24:08;;;;;;;13.60;12.50;;;13.00;99.90;;;;;;5073856;28;20486;-65
2021/06/02 02:26:49;;;;;;;12.87;11.73;;;13.00;99.90;;;;;;5078299;28;20277;-65
2021/06/02 02:29:23;;;;;;;13.63;12.47;;;12.90;99.90;;;;;;5093696;28;20253;-65
2021/06/02 02:32:10;;;;;;;14.27;12.97;;;12.90;99.90;;;;;;5080788;28;20647;-65
2021/06/02 02:34:36;;;;;;;14.33;12.97;;;12.90;99.90;;;;;;5073693;28;20181;-65
2021/06/02 02:37:06;;;;;;;13.90;12.70;;;12.80;99.90;;;;;;5073652;28;20567;-65
2021/06/02 02:39:49;;;;;;;14.83;13.30;;;12.90;99.90;;;;;;5073683;28;20218;-65
2021/06/02 02:42:37;;;;;;;13.60;12.50;;;12.80;99.90;;;;;;5088290;28;20220;-64
2021/06/02 02:45:28;;;;;;;13.67;12.07;;;12.80;99.90;;;;;;5093464;28;20165;-65
2021/06/02 02:48:08;;;;;;;13.13;11.73;;;12.80;99.90;;;;;;5073523;28;20205;-65
2021/06/02 02:51:07;;;;;;;13.00;11.70;;;12.80;99.90;;;;;;5073004;28;20170;-63
2021/06/02 02:54:09;;;;;;;12.53;11.53;;;12.80;99.90;;;;;;5053333;28;20527;-65
2021/06/02 02:56:50;;;;;;;15.43;11.67;;;12.70;99.90;;;;;;5069096;28;20208;-65
2021/06/02 02:59:33;;;;;;;12.13;11.13;;;12.70;99.90;;;;;;5093303;28;20223;-65
2021/06/02 03:02:06;;;;;;;14.77;13.37;;;12.70;99.90;;;;;;5082158;28;20178;-65
2021/06/02 03:04:39;;;;;;;12.50;11.20;;;12.60;99.90;;;;;;5073081;28;20162;-65
2021/06/02 03:07:06;;;;;;;11.80;10.70;;;12.60;99.90;;;;;;5083116;28;20197;-65
2021/06/02 03:09:35;;;;;;;11.73;10.83;;;12.50;99.90;;;;;;5093143;28;20174;-65
2021/06/02 03:12:37;;;;;;;11.80;11.00;;;12.60;99.90;;;;;;5082566;28;20186;-65
2021/06/02 03:15:08;;;;;;;11.30;10.40;;;12.50;99.90;;;;;;5072805;28;20181;-65
2021/06/02 03:17:40;;;;;;;12.63;11.53;;;12.60;99.90;;;;;;5086398;28;20709;-65
2021/06/02 03:20:22;;;;;;;11.73;10.83;;;12.70;99.90;;;;;;5092842;28;20174;-65
2021/06/02 03:23:16;;;;;;;13.47;11.87;;;12.70;99.90;;;;;;5077689;28;20174;-65
2021/06/02 03:25:51;;;;;;;18.73;11.57;;;12.70;99.90;;;;;;5072519;28;20177;-65
2021/06/02 03:28:38;;;;;;;13.57;11.07;;;12.60;99.90;;;;;;5090933;28;20196;-65
2021/06/02 03:31:25;;;;;;;12.10;11.00;;;12.70;99.90;;;;;;5092666;28;20256;-65
2021/06/02 03:33:56;;;;;;;12.93;11.80;;;12.60;99.90;;;;;;5052527;28;20221;-65
2021/06/02 03:36:47;;;;;;;11.90;10.80;;;12.70;99.90;;;;;;5055826;28;20195;-64
2021/06/02 03:39:18;;;;;;;13.03;10.80;;;12.70;99.90;;;;;;5092478;28;20177;-65
2021/06/02 03:42:08;;;;;;;11.30;10.40;;;12.70;99.90;;;;;;5088336;28;20179;-65
2021/06/02 03:45:05;;;;;;;12.30;11.23;;;12.60;99.90;;;;;;5072288;28;20212;-65
2021/06/02 03:48:08;;;;;;;12.57;11.40;;;12.60;99.90;;;;;;5081776;28;20286;-65
2021/06/02 03:50:54;;;;;;;12.23;11.13;;;12.50;99.90;;;;;;5090460;28;20176;-65
2021/06/02 03:53:39;;;;;;;12.27;11.07;;;12.40;99.90;;;;;;5092248;28;20207;-65
2021/06/02 03:56:38;;;;;;;13.50;11.80;;;12.40;99.90;;;;;;5083299;28;20745;-65
2021/06/02 03:59:04;;;;;;;12.17;11.17;;;12.40;99.90;;;;;;5072493;28;20173;-65
2021/06/02 04:01:29;;;;;;;12.13;11.23;;;12.30;99.90;;;;;;5084191;28;20169;-65
2021/06/02 04:04:24;;;;;;;13.27;11.97;;;12.50;99.90;;;;;;5092471;28;20184;-65
2021/06/02 04:06:53;;;;;;;12.83;11.53;;;12.70;99.90;;;;;;5029416;28;20302;-65
2021/06/02 04:09:46;;;;;;;12.13;11.13;;;12.90;99.90;;;;;;5051707;28;20182;-65
2021/06/02 04:12:40;;;;;;;11.93;11.13;;;13.20;99.90;;;;;;5078148;28;20276;-65
2021/06/02 04:15:07;;;;;;;12.93;11.60;;;13.40;99.90;;;;;;5091936;28;20169;-65
2021/06/02 04:17:33;;;;;;;14.13;11.43;;;13.60;99.90;;;;;;5071233;28;20197;-65
2021/06/02 04:20:03;;;;;;;12.00;11.00;;;13.90;99.90;;;;;;5071371;28;20170;-65
2021/06/02 04:22:31;;;;;;;10.93;10.13;;;14.30;99.90;;;;;;5090085;28;20173;-65
2021/06/02 04:24:58;;;;;;;13.27;12.17;;;14.60;99.90;;;;;;5091777;28;20169;-66
2021/06/02 04:27:25;;;;;;;11.60;10.80;;;14.90;99.90;;;;;;5074311;28;20210;-65
2021/06/02 04:29:51;;;;;;;12.23;11.27;;;15.00;99.90;;;;;;5071240;28;20178;-65
2021/06/02 04:32:18;;;;;;;11.47;10.27;;;15.10;99.90;;;;;;5087433;28;20177;-66
2021/06/02 04:34:44;;;;;;;11.97;11.03;;;15.20;99.90;;;;;;5091643;28;20283;-65
2021/06/02 04:37:11;;;;;;;12.47;11.50;;;15.30;99.90;;;;;;5076960;28;20744;-65
2021/06/02 04:39:39;;;;;;;12.67;11.40;;;15.50;99.90;;;;;;5071383;28;20176;-66
2021/06/02 04:42:08;;;;;;;12.83;10.60;;;15.90;99.90;;;;;;5065880;28;20713;-66
2021/06/02 04:44:36;;;;;;;12.83;11.67;;;16.10;99.90;;;;;;5091718;28;20165;-66
2021/06/02 04:47:03;;;;;;;11.60;10.70;;;16.50;99.90;;;;;;5063372;28;20202;-66
2021/06/02 04:49:52;;;;;;;12.37;11.23;;;16.80;99.90;;;;;;5091566;28;20518;-65
2021/06/02 04:52:33;;;;;;;11.67;10.67;;;17.10;99.90;;;;;;5077717;28;20562;-65
2021/06/02 04:55:32;;;;;;;13.03;11.83;;;17.30;99.90;;;;;;5071276;28;20592;-66
2021/06/02 04:58:25;;;;;;;12.30;10.60;;;17.50;99.90;;;;;;5089722;28;20201;-66
2021/06/02 05:01:40;;;;;;;10.67;9.67;;;17.80;99.90;;;;;;5090415;28;20515;-66
2021/06/02 05:04:41;;;;;;;11.10;9.50;;;18.20;99.90;;;;;;5071188;28;20251;-66
2021/06/02 05:07:45;;;;;;;10.82;9.82;;;18.50;99.90;;;;;;5081260;28;20228;-66
2021/06/02 05:10:29;;;;;;;11.18;10.18;;;18.70;99.90;;;;;;5001220;28;20520;-65
2021/06/02 05:13:19;;;;;;;11.68;9.88;;;18.80;99.90;;;;;;5074653;28;20260;-63
2021/06/02 05:16:19;;;;;;;11.23;10.07;;;19.10;99.90;;;;;;5071042;28;20636;-63
2021/06/02 05:19:20;;;;;;;11.80;10.70;;;19.40;99.90;;;;;;5051306;28;20691;-66
2021/06/02 05:22:16;;;;;;;13.15;12.13;;;19.40;99.90;;;;;;5062061;28;20657;-63
2021/06/02 05:25:01;;;;;;;11.63;10.52;;;19.30;99.90;;;;;;5091264;28;20590;-64
2021/06/02 05:28:09;;;;;;;16.83;15.52;;;19.40;99.90;;;;;;5080282;28;20213;-64
2021/06/02 05:31:08;;;;;;;12.13;10.95;;;19.50;99.90;;;;;;5083601;28;20625;-64
2021/06/02 05:33:53;;;;;;;11.82;10.82;;;19.80;99.90;;;;;;5094985;28;20169;-64
2021/06/02 05:36:37;;;;;;;14.02;12.68;;;20.10;99.90;;;;;;5061807;28;20221;-64
2021/06/02 05:39:09;;;;;;;11.90;10.85;;;20.40;99.90;;;;;;5074932;28;20171;-64
2021/06/02 05:41:47;;;;;;;11.57;10.18;;;20.50;99.90;;;;;;5090387;28;20177;-66
2021/06/02 05:44:35;;;;;;;12.80;11.80;;;20.50;99.90;;;;;;5076833;28;20216;-63
2021/06/02 05:47:25;;;;;;;14.68;13.73;;;20.50;99.90;;;;;;5074991;28;20201;-64
2021/06/02 05:50:11;;;;;;;11.65;10.77;;;20.40;99.90;;;;;;5081751;28;20205;-64
2021/06/02 05:53:01;;;;;;;12.20;11.18;;;20.50;99.90;;;;;;5083475;28;20174;-67
2021/06/02 05:55:46;;;;;;;12.48;11.38;;;20.50;99.90;;;;;;5074059;28;20166;-65
2021/06/02 05:58:36;;;;;;;11.07;10.27;;;20.40;99.90;;;;;;5054131;28;20171;-63
2021/06/02 06:01:17;;;;;;;12.77;11.98;;;20.40;99.90;;;;;;5053710;28;20837;-64
2021/06/02 06:04:04;;;;;;;11.00;9.98;;;20.40;99.90;;;;;;5090711;28;20192;-64
2021/06/02 06:06:53;;;;;;;9.55;8.73;;;20.60;99.90;;;;;;5094395;28;20296;-64
2021/06/02 06:09:30;;;;;;;9.00;8.18;;;20.70;99.90;;;;;;5076414;28;20173;-64
2021/06/02 06:12:08;;;;;;;8.45;7.70;;;21.00;99.90;;;;;;5073488;28;20177;-64
2021/06/02 06:14:46;;;;;;;10.40;9.45;;;21.30;99.90;;;;;;5073829;28;20178;-65
2021/06/02 06:17:27;;;;;;;12.35;8.93;;;21.60;99.90;;;;;;5073577;28;20205;-64
2021/06/02 06:20:10;;;;;;;10.35;9.05;;;21.90;99.90;;;;;;5073345;28;20344;-65
2021/06/02 06:23:07;;;;;;;10.35;9.55;;;22.00;99.90;;;;;;5078853;28;20272;-64
2021/06/02 06:25:33;;;;;;;9.52;8.68;;;22.10;99.90;;;;;;5093520;28;20173;-65
2021/06/02 06:28:07;;;;;;;7.13;6.65;;;22.20;99.90;;;;;;5091720;28;20274;-65
2021/06/02 06:30:36;;;;;;;14.13;8.40;;;22.20;99.90;;;;;;5093556;28;20166;-64
2021/06/02 06:33:12;;;;;;;7.65;6.95;;;22.30;99.90;;;;;;5086008;28;20581;-64
2021/06/02 06:35:40;;;;;;;7.85;6.78;;;22.40;99.90;;;;;;5073322;28;20158;-64
2021/06/02 06:38:14;;;;;;;9.38;8.68;;;22.60;99.90;;;;;;5074486;28;20170;-64
2021/06/02 06:40:40;;;;;;;8.27;7.45;;;22.80;99.90;;;;;;5072346;28;20216;-64
2021/06/02 06:43:10;;;;;;;7.65;6.97;;;23.10;99.90;;;;;;5079730;28;20188;-64
2021/06/02 06:45:39;;;;;;;7.95;7.35;;;23.20;99.90;;;;;;5093322;28;20180;-64
2021/06/02 06:48:12;;;;;;;7.70;6.93;;;23.20;99.90;;;;;;5087045;28;20197;-64
2021/06/02 06:50:38;;;;;;;7.60;7.05;;;23.10;99.90;;;;;;5072990;28;20631;-65
2021/06/02 06:53:06;;;;;;;7.38;6.68;;;23.20;99.90;;;;;;5077837;28;20239;-65
2021/06/02 06:55:33;;;;;;;7.97;7.30;;;23.40;99.90;;;;;;5093084;28;20162;-65
2021/06/02 06:58:00;;;;;;;7.30;6.78;;;23.60;99.90;;;;;;5089213;28;20178;-64
2021/06/02 07:00:27;;;;;;;9.25;8.65;;;23.80;99.90;;;;;;5072701;28;20174;-65
2021/06/02 07:02:53;;;;;;;8.95;8.18;;;24.10;99.90;;;;;;5074603;28;20209;-64
2021/06/02 07:05:19;;;;;;;9.38;8.57;;;24.40;99.90;;;;;;5093040;28;20204;-64
2021/06/02 07:07:46;;;;;;;9.00;8.45;;;24.80;99.90;;;;;;5092181;28;20621;-65
2021/06/02 07:10:13;;;;;;;8.45;7.75;;;25.20;99.90;;;;;;5072650;28;20530;-65
2021/06/02 07:12:41;;;;;;;9.57;8.68;;;25.40;99.90;;;;;;5072742;28;20173;-64
2021/06/02 07:15:09;;;;;;;9.48;8.23;;;25.50;99.90;;;;;;5091816;28;20269;-65
2021/06/02 07:17:39;;;;;;;8.20;7.50;;;25.50;99.90;;;;;;5092640;28;20263;-64
2021/06/02 07:20:08;;;;;;;7.57;6.78;;;25.60;99.90;;;;;;5074128;28;20643;-64
2021/06/02 07:22:46;;;;;;;7.45;6.70;;;25.80;99.90;;;;;;5072529;28;20174;-64
2021/06/02 07:25:17;;;;;;;6.88;6.38;;;25.90;99.90;;;;;;5091140;28;20188;-65
2021/06/02 07:27:44;;;;;;;8.13;7.43;;;26.10;99.90;;;;;;5092322;28;20354;-65
2021/06/02 07:30:11;;;;;;;11.98;6.55;;;26.30;99.90;;;;;;5074231;28;20186;-64
2021/06/02 07:32:36;;;;;;;6.93;6.43;;;26.60;99.90;;;;;;5076241;28;20184;-65
2021/06/02 07:35:02;;;;;;;9.57;8.88;;;26.90;99.90;;;;;;5082046;28;20607;-64
2021/06/02 07:37:28;;;;;;;12.20;11.23;;;27.10;99.90;;;;;;5092275;28;20709;-64
2021/06/02 07:39:53;;;;;;;13.35;12.65;;;27.30;99.90;;;;;;5086838;28;20181;-64
2021/06/02 07:42:19;;;;;;;10.90;9.02;;;27.60;99.90;;;;;;5082196;28;20234;-64
2021/06/02 07:44:44;;;;;;;7.15;6.50;;;27.90;99.90;;;;;;5092270;28;20197;-64
2021/06/02 07:47:10;;;;;;;6.88;6.47;;;28.20;99.90;;;;;;5092176;28;20194;-64
2021/06/02 07:49:36;;;;;;;8.93;7.32;;;28.40;99.90;;;;;;5092167;28;20212;-64
2021/06/02 07:52:01;;;;;;;8.32;6.55;;;28.40;99.90;;;;;;5090089;28;20173;-64
2021/06/02 07:54:28;;;;;;;6.68;6.18;;;28.40;99.90;;;;;;5092074;28;20248;-64
2021/06/02 07:56:54;;;;;;;7.82;6.57;;;28.40;99.90;;;;;;5091977;28;20193;-64
2021/06/02 07:59:20;;;;;;;6.72;6.25;;;28.40;99.90;;;;;;5092134;28;20627;-64
2021/06/02 08:01:47;;;;;;;7.55;6.85;;;28.50;99.90;;;;;;5091651;28;20288;-65
2021/06/02 08:04:13;;;;;;;10.50;7.05;;;28.30;99.90;;;;;;5092108;28;20193;-64
2021/06/02 08:06:39;;;;;;;8.13;6.85;;;28.50;99.90;;;;;;5092017;28;20604;-64
2021/06/02 08:09:06;;;;;;;9.45;7.32;;;28.70;99.90;;;;;;5091883;28;20165;-65
2021/06/02 08:11:31;;;;;;;7.88;7.15;;;29.10;99.90;;;;;;5091542;28;20165;-64
2021/06/02 08:13:57;;;;;;;6.75;6.22;;;29.00;99.60;;;;;;5091695;28;20230;-64
2021/06/02 08:16:23;;;;;;;7.10;6.40;;;29.40;99.60;;;;;;5091921;28;20192;-64
2021/06/02 08:18:50;;;;;;;6.75;6.15;;;29.80;99.90;;;;;;5091795;28;20180;-65
2021/06/02 08:21:15;;;;;;;7.20;6.55;;;30.30;99.30;;;;;;5091549;28;20180;-64
2021/06/02 08:23:41;;;;;;;9.80;8.98;;;30.20;97.50;;;;;;5091823;28;20166;-64
2021/06/02 08:26:08;;;;;;;9.63;5.65;;;30.30;98.90;;;;;;5091335;28;20303;-64
2021/06/02 08:28:33;;;;;;;9.77;7.03;;;30.70;99.00;;;;;;5091822;28;20634;-64
2021/06/02 08:30:59;;;;;;;7.72;7.05;;;30.60;96.30;;;;;;5091335;28;20175;-64
2021/06/02 08:33:25;;;;;;;10.90;9.90;;;30.10;96.20;;;;;;5091694;28;20244;-64
2021/06/02 08:35:52;;;;;;;9.48;8.52;;;30.00;96.70;;;;;;5091430;28;20185;-64
2021/06/02 08:38:17;;;;;;;8.02;7.32;;;30.10;97.20;;;;;;5090126;28;20182;-64
2021/06/02 08:40:43;;;;;;;8.55;7.70;;;30.40;96.90;;;;;;5079756;28;20602;-64
2021/06/02 08:43:09;;;;;;;8.20;6.47;;;30.80;96.40;;;;;;5076724;28;20570;-65
2021/06/02 08:45:35;;;;;;;10.50;6.13;;;31.00;95.90;;;;;;5071132;28;20205;-64
2021/06/02 08:48:01;;;;;;;10.23;9.32;;;31.20;94.60;;;;;;5071115;28;20205;-64
2021/06/02 08:50:27;;;;;;;11.95;11.15;;;30.90;94.10;;;;;;5071153;28;20198;-65
2021/06/02 08:52:56;;;;;;;6.55;5.95;;;31.30;94.40;;;;;;5070463;28;20230;-65
2021/06/02 08:55:22;;;;;;;8.88;5.53;;;31.70;91.80;;;;;;5066381;28;20201;-65
2021/06/02 08:57:51;;;;;;;9.15;6.28;;;31.90;93.40;;;;;;5090259;28;20204;-65
2021/06/02 09:00:19;;;;;;;7.50;6.68;;;32.10;92.50;;;;;;5084981;28;20173;-65
2021/06/02 09:02:46;;;;;;;6.63;5.82;;;32.40;92.70;;;;;;5085521;28;20174;-64
2021/06/02 09:05:15;;;;;;;8.23;7.40;;;32.90;91.10;;;;;;5078666;28;20274;-64
2021/06/02 09:07:41;;;;;;;7.15;6.38;;;33.20;90.20;;;;;;5077155;28;20249;-64
2021/06/02 09:10:09;;;;;;;6.78;6.28;;;33.20;91.10;;;;;;5095011;28;20595;-64
2021/06/02 09:12:37;;;;;;;8.32;6.38;;;33.00;88.90;;;;;;5094121;28;20174;-65
2021/06/02 09:15:16;;;;;;;7.57;6.72;;;33.10;85.20;;;;;;5075116;28;20748;-64
2021/06/02 09:17:58;;;;;;;11.32;6.07;;;33.10;87.00;;;;;;5075960;28;20208;-65
2021/06/02 09:20:46;;;;;;;8.15;7.38;;;33.00;86.00;;;;;;5094933;28;20170;-65
2021/06/02 09:23:30;;;;;;;6.95;6.45;;;32.80;87.20;;;;;;5089960;28;20643;-64
2021/06/02 09:26:12;;;;;;;6.50;5.93;;;32.50;83.00;;;;;;5074456;28;20216;-65
2021/06/02 09:29:03;;;;;;;9.43;8.32;;;32.30;83.00;;;;;;5082620;28;20197;-65
2021/06/02 09:31:40;;;;;;;6.85;6.30;;;32.10;80.30;;;;;;5094866;28;20245;-65
2021/06/02 09:34:26;;;;;;;8.27;7.57;;;31.90;79.30;;;;;;5083382;28;20589;-64
2021/06/02 09:36:53;;;;;;;7.53;6.93;;;31.80;80.90;;;;;;5074885;28;20274;-64
2021/06/02 09:39:23;;;;;;;7.65;5.78;;;31.50;79.70;;;;;;5074510;28;20177;-65
2021/06/02 09:41:57;;;;;;;9.95;9.32;;;31.40;77.60;;;;;;5073981;28;20170;-65
2021/06/02 09:44:31;;;;;;;8.82;7.93;;;31.00;78.40;;;;;;5095021;28;20173;-65
2021/06/02 09:46:58;;;;;;;6.93;6.43;;;30.80;78.70;;;;;;5093218;28;20192;-65
2021/06/02 09:49:25;;;;;;;5.38;4.93;;;30.90;78.80;;;;;;5074488;28;20300;-65
2021/06/02 09:51:51;;;;;;;6.40;5.85;;;30.90;77.30;;;;;;5073743;28;20163;-65
2021/06/02 09:54:23;;;;;;;6.03;4.90;;;30.80;77.60;;;;;;5094067;28;20204;-65
2021/06/02 09:56:50;;;;;;;7.07;5.93;;;30.70;76.30;;;;;;5094355;28;20779;-65
2021/06/02 09:59:16;;;;;;;5.15;4.72;;;30.60;75.50;;;;;;5074904;28;20239;-65
2021/06/02 10:02:14;;;;;;;5.65;5.15;;;30.60;75.90;;;;;;5073803;28;20177;-65
2021/06/02 10:04:40;;;;;;;5.10;4.70;;;30.90;75.50;;;;;;5054252;28;20522;-64
2021/06/02 10:07:21;;;;;;;6.97;6.35;;;30.90;73.40;;;;;;5054000;28;20214;-64
2021/06/02 10:09:47;;;;;;;7.40;6.78;;;30.80;75.80;;;;;;5053819;28;20175;-63
2021/06/02 10:12:14;;;;;;;7.32;6.70;;;31.10;75.10;;;;;;5054681;28;20178;-64
2021/06/02 10:15:00;;;;;;;6.10;5.55;;;31.10;77.30;;;;;;5093815;28;20172;-64
2021/06/02 10:17:35;;;;;;;6.25;5.68;;;31.30;75.30;;;;;;5092105;28;20280;-65
2021/06/02 10:20:12;;;;;;;7.55;6.93;;;31.30;72.90;;;;;;5073554;28;20658;-64
2021/06/02 10:22:39;;;;;;;5.90;5.05;;;31.30;66.50;;;;;;5080203;28;20259;-65
2021/06/02 10:25:07;;;;;;;6.45;5.88;;;31.20;69.30;;;;;;5090546;28;20185;-65
2021/06/02 10:27:33;;;;;;;7.70;6.22;;;31.30;71.10;;;;;;5094567;28;20612;-66
2021/06/02 10:29:59;;;;;;;5.93;5.40;;;31.50;64.00;;;;;;5093451;28;20161;-65
2021/06/02 10:32:26;;;;;;;5.55;5.15;;;31.70;65.60;;;;;;5093996;28;20181;-65
2021/06/02 10:34:52;;;;;;;6.78;4.95;;;31.50;61.80;;;;;;5092831;28;20246;-65
2021/06/02 10:37:19;;;;;;;4.80;4.40;;;31.10;63.40;;;;;;5093703;28;20194;-65
2021/06/02 10:39:59;;;;;;;4.78;4.40;;;31.10;66.00;;;;;;5093426;28;20193;-66
2021/06/02 10:42:49;;;;;;;5.07;4.68;;;31.00;65.40;;;;;;5075756;28;20669;-65
2021/06/02 10:45:24;;;;;;;6.68;6.28;;;31.10;65.10;;;;;;5093509;28;20186;-66
2021/06/02 10:48:01;;;;;;;5.38;4.97;;;31.40;68.00;;;;;;5093270;28;20219;-65
2021/06/02 10:50:28;;;;;;;7.35;6.70;;;31.70;63.60;;;;;;5093153;28;20263;-65
2021/06/02 10:52:53;;;;;;;6.22;5.63;;;31.50;62.50;;;;;;5093457;28;20170;-65
2021/06/02 10:55:42;;;;;;;5.95;5.38;;;31.30;63.70;;;;;;5093468;28;20173;-67
2021/06/02 10:58:20;;;;;;;6.22;5.15;;;31.30;62.80;;;;;;5093246;28;20177;-66
2021/06/02 11:00:48;;;;;;;5.97;5.57;;;31.20;62.60;;;;;;5092986;28;20209;-66
2021/06/02 11:03:28;;;;;;;5.00;4.65;;;31.30;65.80;;;;;;5093082;28;20546;-65
2021/06/02 11:06:13;;;;;;;6.28;5.75;;;31.50;63.70;;;;;;5093222;28;20189;-66
2021/06/02 11:08:48;;;;;;;6.32;5.88;;;31.50;63.10;;;;;;5093203;28;20173;-65
2021/06/02 11:11:37;;;;;;;6.38;6.07;;;31.40;64.60;;;;;;5093007;28;20161;-66
2021/06/02 11:14:15;;;;;;;9.25;6.68;;;31.10;63.30;;;;;;5092939;28;20606;-66
2021/06/02 11:16:42;;;;;;;6.13;5.00;;;31.10;62.70;;;;;;5092967;28;20204;-64
2021/06/02 11:19:18;;;;;;;5.18;4.80;;;31.20;61.60;;;;;;5092664;28;20635;-65
2021/06/02 11:21:56;;;;;;;5.28;4.88;;;31.40;64.60;;;;;;5092440;28;20643;-65
2021/06/02 11:27:14;;;;;;;4.72;4.40;;;31.60;64.00;;;;;;5092169;28;20213;-65
2021/06/02 11:32:15;;;;;;;5.60;5.05;;;31.70;58.40;;;;;;5092916;28;20179;-65
2021/06/02 11:34:42;;;;;;;6.07;5.68;;;31.30;58.80;;;;;;5092799;28;20652;-66
2021/06/02 11:37:16;;;;;;;6.63;5.95;;;31.20;58.70;;;;;;5092354;28;20250;-65
2021/06/02 11:39:43;;;;;;;4.65;4.35;;;31.40;59.40;;;;;;5092387;28;20634;-65
2021/06/02 11:42:11;;;;;;;5.55;5.05;;;31.50;58.30;;;;;;5074007;28;20169;-65
2021/06/02 11:44:38;;;;;;;4.90;4.47;;;31.80;60.50;;;;;;5092776;28;20223;-65
2021/06/02 11:47:08;;;;;;;5.82;5.00;;;31.80;58.40;;;;;;5092041;28;20205;-65
2021/06/02 11:49:35;;;;;;;6.75;4.88;;;31.90;59.80;;;;;;5092247;28;20165;-66
2021/06/02 11:52:11;;;;;;;5.53;5.13;;;31.80;59.00;;;;;;5092142;28;20204;-66
2021/06/02 11:54:51;;;;;;;5.80;4.68;;;31.70;59.30;;;;;;5092307;28;20626;-66
2021/06/02 11:57:37;;;;;;;5.20;4.90;;;32.00;58.90;;;;;;5092179;28;20219;-66
2021/06/02 12:00:16;;;;;;;5.60;5.18;;;32.20;62.90;;;;;;5073466;28;20185;-64
2021/06/02 12:02:43;;;;;;;6.78;4.50;;;32.60;59.60;;;;;;5092160;28;20165;-65
2021/06/02 12:05:46;;;;;;;5.25;4.63;;;32.50;58.80;;;;;;5091881;28;20572;-65
2021/06/02 12:08:16;;;;;;;5.43;4.50;;;32.00;57.70;;;;;;5092198;28;20211;-66
2021/06/02 12:10:54;;;;;;;5.32;4.93;;;32.00;58.30;;;;;;5091749;28;20161;-66
2021/06/02 12:13:27;;;;;;;6.45;5.95;;;32.10;56.70;;;;;;5090197;28;20169;-66
2021/06/02 12:15:59;;;;;;;4.82;4.53;;;32.40;58.30;;;;;;5066484;28;20736;-64
2021/06/02 12:18:33;;;;;;;5.65;5.35;;;32.60;55.80;;;;;;5080141;28;20174;-64
2021/06/02 12:21:22;;;;;;;6.25;5.88;;;32.70;55.80;;;;;;5079347;28;20173;-65
2021/06/02 12:24:07;;;;;;;5.82;5.35;;;32.70;54.00;;;;;;5089803;28;20177;-65
2021/06/02 12:26:35;;;;;;;5.65;5.22;;;32.10;54.10;;;;;;5090129;28;20243;-66
2021/06/02 12:29:04;;;;;;;5.38;4.97;;;32.30;55.90;;;;;;5087836;28;20170;-65
2021/06/02 12:32:03;;;;;;;7.45;4.78;;;32.50;55.60;;;;;;5084905;28;20180;-66
2021/06/02 12:34:33;;;;;;;5.45;5.00;;;32.60;53.40;;;;;;5022630;28;20196;-66
2021/06/02 12:37:02;;;;;;;7.03;5.95;;;32.70;54.40;;;;;;5071763;28;20281;-65
2021/06/02 12:39:33;;;;;;;6.63;5.72;;;33.10;56.20;;;;;;5061053;28;20200;-66
2021/06/02 12:42:01;;;;;;;8.15;7.43;;;33.40;55.70;;;;;;5071237;28;20178;-66
2021/06/02 12:44:35;;;;;;;5.88;5.22;;;33.00;54.20;;;;;;5079333;28;20170;-65
2021/06/02 12:47:07;;;;;;;5.35;4.70;;;33.10;54.20;;;;;;5082391;28;20201;-65
2021/06/02 12:49:39;;;;;;;7.65;4.93;;;33.30;53.70;;;;;;5075108;28;20180;-66
2021/06/02 12:52:04;;;;;;;5.55;5.05;;;33.10;53.10;;;;;;5081359;28;20186;-66
2021/06/02 12:54:31;;;;;;;5.75;5.22;;;33.30;53.90;;;;;;5081594;28;20269;-65
2021/06/02 12:56:58;;;;;;;5.25;4.95;;;33.20;54.50;;;;;;5078869;28;20200;-66
2021/06/02 12:59:27;;;;;;;5.70;5.20;;;33.30;54.90;;;;;;5091445;28;20165;-65
2021/06/02 13:01:57;;;;;;;5.18;4.60;;;33.30;53.50;;;;;;5090876;28;20180;-65
2021/06/02 13:04:23;;;;;;;5.43;5.00;;;33.20;53.00;;;;;;5091375;28;20253;-65
2021/06/02 13:06:53;;;;;;;7.25;5.47;;;33.00;53.20;;;;;;5091229;28;20280;-65
2021/06/02 13:09:21;;;;;;;5.55;5.05;;;33.00;52.80;;;;;;5091486;28;20695;-65
2021/06/02 13:11:47;;;;;;;5.22;4.78;;;33.20;55.40;;;;;;5090907;28;20170;-65
2021/06/02 13:14:12;;;;;;;6.57;6.07;;;33.20;55.10;;;;;;5073454;28;20195;-66
2021/06/02 13:16:56;;;;;;;6.25;5.90;;;33.10;54.20;;;;;;5091305;28;20186;-66
2021/06/02 13:19:46;;;;;;;10.68;6.82;;;33.10;55.00;;;;;;5073305;28;20185;-68
2021/06/02 13:22:22;;;;;;;6.40;5.80;;;33.20;56.50;;;;;;5091583;28;20177;-66
2021/06/02 13:24:48;;;;;;;5.50;5.20;;;33.40;54.70;;;;;;5091516;28;20166;-67